sensor_id;sensor_type;location;lat;lon;timestamp;pressure;altitude;pressure_sealevel;temperature;humidity
27294;BME280;14785;52.556;13.430;2023-02-08T00:01:42;103382.69;;;4.18;100.00
27294;BME280;14785;52.556;13.430;2023-02-08T00:04:08;103381.19;;;4.11;100.00
27294;BME280;14785;52.556;13.430;2023-02-08T00:06:33;103382.66;;;4.19;100.00
27294;BME280;14785;52.556;13.430;2023-02-08T00:08:59;103382.16;;;4.08;100.00
27294;BME280;14785;52.556;13.430;2023-02-08T00:11:25;103384.84;;;4.07;100.00
27294;BME280;14785;52.556;13.430;2023-02-08T00:13:50;103385.69;;;3.79;100.00
27294;BME280;14785;52.556;13.430;2023-02-08T00:16:16;103384.16;;;3.72;100.00
27294;BME280;14785;52.556;13.430;2023-02-08T00:18:42;103375.91;;;3.55;100.00
27294;BME280;14785;52.556;13.430;2023-02-08T00:21:09;103375.69;;;3.32;100.00
27294;BME280;14785;52.556;13.430;2023-02-08T00:23:35;103375.16;;;3.21;100.00
27294;BME280;14785;52.556;13.430;2023-02-08T00:26:01;103369.19;;;3.45;100.00
27294;BME280;14785;52.556;13.430;2023-02-08T00:28:26;103372.16;;;3.62;100.00
27294;BME280;14785;52.556;13.430;2023-02-08T00:30:51;103376.00;;;3.52;100.00
27294;BME280;14785;52.556;13.430;2023-02-08T00:33:17;103384.41;;;3.34;100.00
27294;BME280;14785;52.556;13.430;2023-02-08T00:35:43;103381.75;;;3.65;100.00
27294;BME280;14785;52.556;13.430;2023-02-08T00:38:08;103375.44;;;3.70;100.00
27294;BME280;14785;52.556;13.430;2023-02-08T00:40:33;103384.16;;;3.43;100.00
27294;BME280;14785;52.556;13.430;2023-02-08T00:42:59;103386.34;;;3.28;100.00
27294;BME280;14785;52.556;13.430;2023-02-08T00:45:24;103379.81;;;3.42;100.00
27294;BME280;14785;52.556;13.430;2023-02-08T00:47:50;103369.06;;;3.50;100.00
27294;BME280;14785;52.556;13.430;2023-02-08T00:50:15;103368.38;;;3.72;100.00
27294;BME280;14785;52.556;13.430;2023-02-08T00:52:41;103371.59;;;3.80;100.00
27294;BME280;14785;52.556;13.430;2023-02-08T00:55:06;103375.66;;;3.92;100.00
27294;BME280;14785;52.556;13.430;2023-02-08T00:57:32;103378.25;;;3.93;100.00
27294;BME280;14785;52.556;13.430;2023-02-08T00:59:58;103372.97;;;3.93;100.00
27294;BME280;14785;52.556;13.430;2023-02-08T01:02:24;103379.13;;;3.92;100.00
27294;BME280;14785;52.556;13.430;2023-02-08T01:04:49;103378.63;;;3.81;100.00
27294;BME280;14785;52.556;13.430;2023-02-08T01:07:14;103382.41;;;3.71;100.00
27294;BME280;14785;52.556;13.430;2023-02-08T01:09:40;103375.91;;;3.55;100.00
27294;BME280;14785;52.556;13.430;2023-02-08T01:12:05;103387.25;;;2.64;100.00
27294;BME280;14785;52.556;13.430;2023-02-08T01:14:31;103383.28;;;2.13;100.00
27294;BME280;14785;52.556;13.430;2023-02-08T01:16:56;103383.25;;;2.50;100.00
27294;BME280;14785;52.556;13.430;2023-02-08T01:19:22;103390.06;;;2.90;100.00
27294;BME280;14785;52.556;13.430;2023-02-08T01:21:47;103387.16;;;3.01;100.00
27294;BME280;14785;52.556;13.430;2023-02-08T01:24:15;103385.44;;;2.98;100.00
27294;BME280;14785;52.556;13.430;2023-02-08T01:26:41;103390.47;;;2.75;100.00
27294;BME280;14785;52.556;13.430;2023-02-08T01:29:07;103391.88;;;2.88;100.00
27294;BME280;14785;52.556;13.430;2023-02-08T01:31:36;103379.91;;;3.09;100.00
27294;BME280;14785;52.556;13.430;2023-02-08T01:34:03;103381.00;;;3.31;100.00
27294;BME280;14785;52.556;13.430;2023-02-08T01:36:30;103376.53;;;3.34;100.00
27294;BME280;14785;52.556;13.430;2023-02-08T01:38:56;103378.59;;;3.54;100.00
27294;BME280;14785;52.556;13.430;2023-02-08T01:41:31;103370.97;;;3.74;100.00
27294;BME280;14785;52.556;13.430;2023-02-08T01:46:22;103373.16;;;3.87;100.00
27294;BME280;14785;52.556;13.430;2023-02-08T01:48:48;103371.75;;;4.04;100.00
27294;BME280;14785;52.556;13.430;2023-02-08T01:51:16;103369.22;;;4.01;100.00
27294;BME280;14785;52.556;13.430;2023-02-08T01:53:44;103366.28;;;3.82;100.00
27294;BME280;14785;52.556;13.430;2023-02-08T01:56:11;103364.88;;;4.00;100.00
27294;BME280;14785;52.556;13.430;2023-02-08T01:58:43;103360.59;;;3.95;100.00
27294;BME280;14785;52.556;13.430;2023-02-08T02:01:10;103372.25;;;4.15;100.00
27294;BME280;14785;52.556;13.430;2023-02-08T02:03:37;103369.91;;;3.79;100.00
27294;BME280;14785;52.556;13.430;2023-02-08T02:06:07;103378.13;;;2.77;100.00
27294;BME280;14785;52.556;13.430;2023-02-08T02:08:34;103369.78;;;2.28;100.00
27294;BME280;14785;52.556;13.430;2023-02-08T02:11:00;103366.91;;;3.03;100.00
27294;BME280;14785;52.556;13.430;2023-02-08T02:13:26;103367.09;;;3.27;100.00
27294;BME280;14785;52.556;13.430;2023-02-08T02:15:53;103377.00;;;3.18;100.00
27294;BME280;14785;52.556;13.430;2023-02-08T02:18:21;103364.63;;;3.50;100.00
27294;BME280;14785;52.556;13.430;2023-02-08T02:31:53;103373.25;;;3.84;100.00
27294;BME280;14785;52.556;13.430;2023-02-08T02:34:36;103370.47;;;3.89;100.00
27294;BME280;14785;52.556;13.430;2023-02-08T02:42:57;103379.84;;;3.70;100.00
27294;BME280;14785;52.556;13.430;2023-02-08T02:48:34;103381.97;;;2.98;100.00
27294;BME280;14785;52.556;13.430;2023-02-08T02:51:24;103389.03;;;1.54;100.00
27294;BME280;14785;52.556;13.430;2023-02-08T02:56:38;103379.84;;;2.46;100.00
27294;BME280;14785;52.556;13.430;2023-02-08T02:59:09;103373.59;;;2.50;100.00
27294;BME280;14785;52.556;13.430;2023-02-08T03:01:36;103381.19;;;2.27;100.00
27294;BME280;14785;52.556;13.430;2023-02-08T03:04:15;103380.59;;;2.51;100.00
27294;BME280;14785;52.556;13.430;2023-02-08T03:06:56;103378.38;;;2.68;100.00
27294;BME280;14785;52.556;13.430;2023-02-08T03:20:31;103380.03;;;0.29;100.00
27294;BME280;14785;52.556;13.430;2023-02-08T03:28:50;103387.47;;;0.03;100.00
27294;BME280;14785;52.556;13.430;2023-02-08T03:34:05;103385.84;;;0.96;100.00
27294;BME280;14785;52.556;13.430;2023-02-08T03:39:06;103381.41;;;1.42;100.00
27294;BME280;14785;52.556;13.430;2023-02-08T03:41:37;103375.31;;;1.81;100.00
27294;BME280;14785;52.556;13.430;2023-02-08T03:44:09;103379.91;;;1.29;100.00
27294;BME280;14785;52.556;13.430;2023-02-08T03:46:40;103377.69;;;1.52;100.00
27294;BME280;14785;52.556;13.430;2023-02-08T03:49:10;103378.94;;;1.74;100.00
27294;BME280;14785;52.556;13.430;2023-02-08T03:51:38;103376.81;;;2.26;100.00
27294;BME280;14785;52.556;13.430;2023-02-08T03:54:08;103369.63;;;2.34;100.00
27294;BME280;14785;52.556;13.430;2023-02-08T03:57:12;103378.53;;;2.62;100.00
27294;BME280;14785;52.556;13.430;2023-02-08T03:59:41;103388.81;;;2.71;100.00
27294;BME280;14785;52.556;13.430;2023-02-08T04:02:10;103380.56;;;2.85;100.00
27294;BME280;14785;52.556;13.430;2023-02-08T04:04:41;103380.50;;;3.18;100.00
27294;BME280;14785;52.556;13.430;2023-02-08T04:07:08;103386.41;;;3.26;100.00
27294;BME280;14785;52.556;13.430;2023-02-08T04:09:33;103393.16;;;3.04;100.00
27294;BME280;14785;52.556;13.430;2023-02-08T04:11:59;103382.66;;;3.04;100.00
27294;BME280;14785;52.556;13.430;2023-02-08T04:14:24;103385.69;;;3.21;100.00
27294;BME280;14785;52.556;13.430;2023-02-08T04:16:50;103379.63;;;3.18;100.00
27294;BME280;14785;52.556;13.430;2023-02-08T04:19:15;103377.56;;;3.29;100.00
27294;BME280;14785;52.556;13.430;2023-02-08T04:21:40;103382.22;;;3.19;100.00
27294;BME280;14785;52.556;13.430;2023-02-08T04:24:06;103380.25;;;3.27;100.00
27294;BME280;14785;52.556;13.430;2023-02-08T04:26:31;103380.16;;;3.00;100.00
27294;BME280;14785;52.556;13.430;2023-02-08T04:28:57;103384.97;;;3.15;100.00
27294;BME280;14785;52.556;13.430;2023-02-08T04:31:22;103385.16;;;3.09;100.00
27294;BME280;14785;52.556;13.430;2023-02-08T04:33:48;103382.81;;;2.98;100.00
27294;BME280;14785;52.556;13.430;2023-02-08T04:36:13;103384.66;;;2.63;100.00
27294;BME280;14785;52.556;13.430;2023-02-08T04:38:39;103391.31;;;2.76;100.00
27294;BME280;14785;52.556;13.430;2023-02-08T04:41:04;103380.41;;;2.91;100.00
27294;BME280;14785;52.556;13.430;2023-02-08T04:43:30;103379.31;;;2.99;100.00
27294;BME280;14785;52.556;13.430;2023-02-08T04:45:55;103378.13;;;2.77;100.00
27294;BME280;14785;52.556;13.430;2023-02-08T04:48:21;103378.34;;;2.36;100.00
27294;BME280;14785;52.556;13.430;2023-02-08T04:50:46;103385.22;;;2.75;100.00
27294;BME280;14785;52.556;13.430;2023-02-08T04:53:11;103383.63;;;2.68;100.00
27294;BME280;14785;52.556;13.430;2023-02-08T04:55:37;103383.28;;;2.82;100.00
27294;BME280;14785;52.556;13.430;2023-02-08T04:58:02;103382.91;;;2.95;100.00
27294;BME280;14785;52.556;13.430;2023-02-08T05:00:28;103379.38;;;2.96;100.00
27294;BME280;14785;52.556;13.430;2023-02-08T05:02:57;103376.53;;;3.04;100.00
27294;BME280;14785;52.556;13.430;2023-02-08T05:05:24;103383.16;;;2.86;100.00
27294;BME280;14785;52.556;13.430;2023-02-08T05:07:50;103376.34;;;2.79;100.00
27294;BME280;14785;52.556;13.430;2023-02-08T05:10:16;103387.44;;;2.90;100.00
27294;BME280;14785;52.556;13.430;2023-02-08T05:12:41;103383.31;;;2.80;100.00
27294;BME280;14785;52.556;13.430;2023-02-08T05:15:07;103386.06;;;2.76;100.00
27294;BME280;14785;52.556;13.430;2023-02-08T05:17:32;103388.00;;;2.69;100.00
27294;BME280;14785;52.556;13.430;2023-02-08T05:19:58;103385.06;;;2.48;100.00
27294;BME280;14785;52.556;13.430;2023-02-08T05:22:24;103389.53;;;2.78;100.00
27294;BME280;14785;52.556;13.430;2023-02-08T05:24:49;103384.81;;;2.90;100.00
27294;BME280;14785;52.556;13.430;2023-02-08T05:27:14;103381.72;;;3.07;100.00
27294;BME280;14785;52.556;13.430;2023-02-08T05:29:40;103387.41;;;2.92;100.00
27294;BME280;14785;52.556;13.430;2023-02-08T05:32:07;103388.44;;;2.53;100.00
27294;BME280;14785;52.556;13.430;2023-02-08T05:34:32;103383.72;;;2.32;100.00
27294;BME280;14785;52.556;13.430;2023-02-08T05:36:58;103386.22;;;2.36;100.00
27294;BME280;14785;52.556;13.430;2023-02-08T05:39:23;103392.63;;;1.88;100.00
27294;BME280;14785;52.556;13.430;2023-02-08T05:41:48;103390.56;;;2.37;100.00
27294;BME280;14785;52.556;13.430;2023-02-08T05:44:14;103391.59;;;1.95;100.00
27294;BME280;14785;52.556;13.430;2023-02-08T05:46:39;103390.72;;;1.96;100.00
27294;BME280;14785;52.556;13.430;2023-02-08T05:49:05;103393.03;;;1.70;100.00
27294;BME280;14785;52.556;13.430;2023-02-08T05:51:30;103400.69;;;0.95;100.00
27294;BME280;14785;52.556;13.430;2023-02-08T05:53:55;103396.72;;;0.75;100.00
27294;BME280;14785;52.556;13.430;2023-02-08T05:56:21;103399.81;;;0.95;100.00
27294;BME280;14785;52.556;13.430;2023-02-08T05:58:46;103389.56;;;0.83;100.00
27294;BME280;14785;52.556;13.430;2023-02-08T06:01:12;103394.75;;;0.86;100.00
27294;BME280;14785;52.556;13.430;2023-02-08T06:03:39;103397.88;;;0.59;100.00
27294;BME280;14785;52.556;13.430;2023-02-08T06:06:05;103401.56;;;-0.08;100.00
27294;BME280;14785;52.556;13.430;2023-02-08T06:08:32;103408.53;;;-0.07;100.00
27294;BME280;14785;52.556;13.430;2023-02-08T06:10:58;103407.66;;;-0.09;100.00
27294;BME280;14785;52.556;13.430;2023-02-08T06:13:23;103413.63;;;0.03;100.00
27294;BME280;14785;52.556;13.430;2023-02-08T06:15:48;103411.25;;;-0.14;100.00
27294;BME280;14785;52.556;13.430;2023-02-08T06:18:15;103416.31;;;-0.04;100.00
27294;BME280;14785;52.556;13.430;2023-02-08T06:20:41;103422.59;;;-0.14;100.00
27294;BME280;14785;52.556;13.430;2023-02-08T06:23:06;103430.16;;;-0.61;100.00
27294;BME280;14785;52.556;13.430;2023-02-08T06:25:32;103429.88;;;-0.37;100.00
27294;BME280;14785;52.556;13.430;2023-02-08T06:27:57;103432.56;;;-0.44;100.00
27294;BME280;14785;52.556;13.430;2023-02-08T06:30:23;103424.69;;;-0.40;100.00
27294;BME280;14785;52.556;13.430;2023-02-08T06:32:48;103431.47;;;-0.28;100.00
27294;BME280;14785;52.556;13.430;2023-02-08T06:35:13;103426.88;;;-0.78;100.00
27294;BME280;14785;52.556;13.430;2023-02-08T06:37:39;103418.94;;;-0.70;100.00
27294;BME280;14785;52.556;13.430;2023-02-08T06:40:05;103429.97;;;-0.46;100.00
27294;BME280;14785;52.556;13.430;2023-02-08T06:42:31;103429.94;;;-0.43;100.00
27294;BME280;14785;52.556;13.430;2023-02-08T06:44:57;103423.97;;;0.12;100.00
27294;BME280;14785;52.556;13.430;2023-02-08T06:47:24;103415.69;;;0.37;100.00
27294;BME280;14785;52.556;13.430;2023-02-08T06:49:50;103421.66;;;0.45;100.00
27294;BME280;14785;52.556;13.430;2023-02-08T06:52:16;103413.13;;;0.36;100.00
27294;BME280;14785;52.556;13.430;2023-02-08T06:54:42;103426.56;;;0.13;100.00
27294;BME280;14785;52.556;13.430;2023-02-08T06:57:07;103433.50;;;-0.47;100.00
27294;BME280;14785;52.556;13.430;2023-02-08T06:59:33;103432.03;;;-0.73;100.00
27294;BME280;14785;52.556;13.430;2023-02-08T07:01:58;103431.09;;;-0.65;100.00
27294;BME280;14785;52.556;13.430;2023-02-08T07:04:24;103432.03;;;-0.72;100.00
27294;BME280;14785;52.556;13.430;2023-02-08T07:06:49;103433.53;;;-0.50;100.00
27294;BME280;14785;52.556;13.430;2023-02-08T07:09:16;103430.19;;;-0.64;100.00
27294;BME280;14785;52.556;13.430;2023-02-08T07:11:42;103435.34;;;-0.58;100.00
27294;BME280;14785;52.556;13.430;2023-02-08T07:14:10;103435.50;;;-0.70;100.00
27294;BME280;14785;52.556;13.430;2023-02-08T07:16:37;103424.44;;;-0.96;100.00
27294;BME280;14785;52.556;13.430;2023-02-08T07:19:02;103429.56;;;-0.87;100.00
27294;BME280;14785;52.556;13.430;2023-02-08T07:21:28;103428.16;;;-1.16;100.00
27294;BME280;14785;52.556;13.430;2023-02-08T07:23:53;103425.22;;;-0.85;100.00
27294;BME280;14785;52.556;13.430;2023-02-08T07:26:18;103419.47;;;-0.43;100.00
27294;BME280;14785;52.556;13.430;2023-02-08T07:28:44;103425.00;;;-0.67;100.00
27294;BME280;14785;52.556;13.430;2023-02-08T07:31:12;103431.25;;;-0.78;100.00
27294;BME280;14785;52.556;13.430;2023-02-08T07:33:39;103439.28;;;-0.98;100.00
27294;BME280;14785;52.556;13.430;2023-02-08T07:36:06;103431.53;;;-1.04;100.00
27294;BME280;14785;52.556;13.430;2023-02-08T07:38:32;103428.69;;;-0.15;100.00
27294;BME280;14785;52.556;13.430;2023-02-08T07:41:19;103431.41;;;-0.24;100.00
27294;BME280;14785;52.556;13.430;2023-02-08T07:43:44;103443.91;;;0.19;100.00
27294;BME280;14785;52.556;13.430;2023-02-08T07:46:16;103441.19;;;0.25;100.00
27294;BME280;14785;52.556;13.430;2023-02-08T07:48:42;103447.56;;;0.07;100.00
27294;BME280;14785;52.556;13.430;2023-02-08T07:51:08;103450.53;;;-0.19;100.00
27294;BME280;14785;52.556;13.430;2023-02-08T07:53:34;103454.69;;;-0.03;100.00
27294;BME280;14785;52.556;13.430;2023-02-08T07:56:00;103452.47;;;0.30;100.00
27294;BME280;14785;52.556;13.430;2023-02-08T07:58:25;103453.16;;;0.92;100.00
27294;BME280;14785;52.556;13.430;2023-02-08T08:00:51;103456.97;;;1.22;100.00
27294;BME280;14785;52.556;13.430;2023-02-08T08:03:17;103461.94;;;1.37;100.00
27294;BME280;14785;52.556;13.430;2023-02-08T08:05:42;103454.94;;;2.18;100.00
27294;BME280;14785;52.556;13.430;2023-02-08T08:08:09;103464.28;;;1.93;100.00
27294;BME280;14785;52.556;13.430;2023-02-08T08:10:34;103460.25;;;1.75;100.00
27294;BME280;14785;52.556;13.430;2023-02-08T08:13:00;103460.09;;;1.83;100.00
27294;BME280;14785;52.556;13.430;2023-02-08T08:15:25;103463.47;;;2.26;100.00
27294;BME280;14785;52.556;13.430;2023-02-08T08:17:51;103466.88;;;1.52;100.00
27294;BME280;14785;52.556;13.430;2023-02-08T08:20:17;103469.34;;;1.14;100.00
27294;BME280;14785;52.556;13.430;2023-02-08T08:22:42;103473.72;;;0.65;100.00
27294;BME280;14785;52.556;13.430;2023-02-08T08:25:08;103470.00;;;0.25;100.00
27294;BME280;14785;52.556;13.430;2023-02-08T08:27:33;103469.69;;;0.44;100.00
27294;BME280;14785;52.556;13.430;2023-02-08T08:29:59;103469.59;;;0.50;100.00
27294;BME280;14785;52.556;13.430;2023-02-08T08:32:25;103462.66;;;0.48;100.00
27294;BME280;14785;52.556;13.430;2023-02-08T08:34:51;103463.72;;;1.35;100.00
27294;BME280;14785;52.556;13.430;2023-02-08T08:37:17;103465.47;;;1.34;100.00
27294;BME280;14785;52.556;13.430;2023-02-08T08:39:42;103461.16;;;0.85;100.00
27294;BME280;14785;52.556;13.430;2023-02-08T08:42:08;103461.22;;;0.82;100.00
27294;BME280;14785;52.556;13.430;2023-02-08T08:44:33;103452.81;;;1.12;100.00
27294;BME280;14785;52.556;13.430;2023-02-08T08:46:59;103449.09;;;1.22;100.00
27294;BME280;14785;52.556;13.430;2023-02-08T08:49:26;103444.47;;;0.39;100.00
27294;BME280;14785;52.556;13.430;2023-02-08T08:51:52;103443.75;;;0.29;100.00
27294;BME280;14785;52.556;13.430;2023-02-08T08:54:18;103444.38;;;0.45;100.00
27294;BME280;14785;52.556;13.430;2023-02-08T08:56:44;103443.00;;;0.20;100.00
27294;BME280;14785;52.556;13.430;2023-02-08T08:59:10;103436.13;;;0.69;100.00
27294;BME280;14785;52.556;13.430;2023-02-08T09:01:35;103444.53;;;0.36;100.00
27294;BME280;14785;52.556;13.430;2023-02-08T09:04:01;103439.47;;;0.75;100.00
27294;BME280;14785;52.556;13.430;2023-02-08T09:06:27;103436.84;;;0.77;100.00
27294;BME280;14785;52.556;13.430;2023-02-08T09:08:52;103439.75;;;1.09;100.00
27294;BME280;14785;52.556;13.430;2023-02-08T09:11:18;103437.94;;;1.11;100.00
27294;BME280;14785;52.556;13.430;2023-02-08T09:13:43;103431.91;;;1.09;100.00
27294;BME280;14785;52.556;13.430;2023-02-08T09:16:13;103427.19;;;0.80;100.00
27294;BME280;14785;52.556;13.430;2023-02-08T09:18:40;103438.75;;;1.16;100.00
27294;BME280;14785;52.556;13.430;2023-02-08T09:21:16;103431.91;;;0.59;100.00
27294;BME280;14785;52.556;13.430;2023-02-08T09:23:43;103442.75;;;0.88;100.00
27294;BME280;14785;52.556;13.430;2023-02-08T09:26:10;103436.22;;;0.63;100.00
27294;BME280;14785;52.556;13.430;2023-02-08T09:28:36;103443.03;;;0.73;100.00
27294;BME280;14785;52.556;13.430;2023-02-08T09:31:13;103447.91;;;1.38;100.00
27294;BME280;14785;52.556;13.430;2023-02-08T09:33:41;103450.69;;;1.73;100.00
27294;BME280;14785;52.556;13.430;2023-02-08T09:36:06;103447.38;;;1.21;100.00
27294;BME280;14785;52.556;13.430;2023-02-08T09:38:33;103449.91;;;1.27;100.00
27294;BME280;14785;52.556;13.430;2023-02-08T09:46:40;103448.19;;;2.07;100.00
27294;BME280;14785;52.556;13.430;2023-02-08T09:49:17;103452.22;;;2.23;100.00
27294;BME280;14785;52.556;13.430;2023-02-08T09:51:53;103450.63;;;1.76;100.00
27294;BME280;14785;52.556;13.430;2023-02-08T09:54:21;103445.75;;;1.58;100.00
27294;BME280;14785;52.556;13.430;2023-02-08T09:56:48;103442.72;;;1.77;100.00
27294;BME280;14785;52.556;13.430;2023-02-08T09:59:22;103442.72;;;1.35;100.00
27294;BME280;14785;52.556;13.430;2023-02-08T10:01:55;103434.69;;;1.00;100.00
27294;BME280;14785;52.556;13.430;2023-02-08T10:04:29;103423.06;;;1.13;100.00
27294;BME280;14785;52.556;13.430;2023-02-08T10:07:00;103411.78;;;1.52;100.00
27294;BME280;14785;52.556;13.430;2023-02-08T10:09:26;103420.31;;;1.63;100.00
27294;BME280;14785;52.556;13.430;2023-02-08T10:12:16;103416.03;;;1.57;100.00
27294;BME280;14785;52.556;13.430;2023-02-08T10:14:47;103400.03;;;2.09;100.00
27294;BME280;14785;52.556;13.430;2023-02-08T10:31:17;103378.13;;;1.72;100.00
27294;BME280;14785;52.556;13.430;2023-02-08T10:36:27;103371.84;;;2.16;100.00
27294;BME280;14785;52.556;13.430;2023-02-08T10:38:55;103368.69;;;2.70;100.00
27294;BME280;14785;52.556;13.430;2023-02-08T10:41:25;103364.81;;;2.83;100.00
27294;BME280;14785;52.556;13.430;2023-02-08T10:44:19;103359.25;;;2.95;100.00
27294;BME280;14785;52.556;13.430;2023-02-08T10:47:12;103361.16;;;3.77;100.00
27294;BME280;14785;52.556;13.430;2023-02-08T10:49:49;103361.53;;;3.38;100.00
27294;BME280;14785;52.556;13.430;2023-02-08T10:52:17;103362.13;;;2.86;100.00
27294;BME280;14785;52.556;13.430;2023-02-08T10:54:42;103364.13;;;2.78;100.00
27294;BME280;14785;52.556;13.430;2023-02-08T10:57:16;103361.94;;;2.92;100.00
27294;BME280;14785;52.556;13.430;2023-02-08T10:59:50;103350.22;;;3.34;100.00
27294;BME280;14785;52.556;13.430;2023-02-08T11:02:24;103350.09;;;3.68;100.00
27294;BME280;14785;52.556;13.430;2023-02-08T11:05:06;103349.22;;;3.67;100.00
27294;BME280;14785;52.556;13.430;2023-02-08T11:07:32;103330.25;;;3.84;100.00
27294;BME280;14785;52.556;13.430;2023-02-08T11:13:02;103332.03;;;3.83;100.00
27294;BME280;14785;52.556;13.430;2023-02-08T11:15:45;103331.03;;;3.87;100.00
27294;BME280;14785;52.556;13.430;2023-02-08T11:21:23;103338.44;;;4.29;100.00
27294;BME280;14785;52.556;13.430;2023-02-08T11:23:50;103346.97;;;4.37;100.00
27294;BME280;14785;52.556;13.430;2023-02-08T11:26:21;103343.09;;;4.96;100.00
27294;BME280;14785;52.556;13.430;2023-02-08T11:28:59;103341.47;;;4.67;100.00
27294;BME280;14785;52.556;13.430;2023-02-08T11:31:25;103339.84;;;4.39;100.00
27294;BME280;14785;52.556;13.430;2023-02-08T11:34:10;103340.06;;;5.06;100.00
27294;BME280;14785;52.556;13.430;2023-02-08T11:36:42;103336.47;;;5.09;100.00
27294;BME280;14785;52.556;13.430;2023-02-08T11:39:39;103330.63;;;4.76;100.00
27294;BME280;14785;52.556;13.430;2023-02-08T11:42:05;103320.38;;;4.67;100.00
27294;BME280;14785;52.556;13.430;2023-02-08T11:44:40;103325.78;;;4.89;100.00
27294;BME280;14785;52.556;13.430;2023-02-08T11:47:08;103327.19;;;5.66;100.00
27294;BME280;14785;52.556;13.430;2023-02-08T11:49:39;103328.34;;;6.04;100.00
27294;BME280;14785;52.556;13.430;2023-02-08T11:52:17;103331.13;;;5.78;100.00
27294;BME280;14785;52.556;13.430;2023-02-08T11:54:44;103330.66;;;6.73;100.00
27294;BME280;14785;52.556;13.430;2023-02-08T11:57:23;103330.16;;;6.02;100.00
27294;BME280;14785;52.556;13.430;2023-02-08T11:59:51;103328.91;;;6.72;100.00
27294;BME280;14785;52.556;13.430;2023-02-08T12:02:38;103327.34;;;6.68;100.00
27294;BME280;14785;52.556;13.430;2023-02-08T12:05:49;103322.66;;;6.75;100.00
27294;BME280;14785;52.556;13.430;2023-02-08T12:13:49;103328.66;;;5.29;100.00
27294;BME280;14785;52.556;13.430;2023-02-08T12:21:49;103333.97;;;7.35;100.00
27294;BME280;14785;52.556;13.430;2023-02-08T12:29:40;103343.00;;;6.53;100.00
27294;BME280;14785;52.556;13.430;2023-02-08T12:37:57;103345.63;;;6.33;100.00
27294;BME280;14785;52.556;13.430;2023-02-08T12:40:54;103341.19;;;6.33;100.00
27294;BME280;14785;52.556;13.430;2023-02-08T12:43:50;103334.75;;;7.74;100.00
27294;BME280;14785;52.556;13.430;2023-02-08T12:49:28;103323.47;;;7.34;100.00
27294;BME280;14785;52.556;13.430;2023-02-08T12:54:56;103321.56;;;7.92;100.00
27294;BME280;14785;52.556;13.430;2023-02-08T12:57:24;103317.91;;;9.29;100.00
27294;BME280;14785;52.556;13.430;2023-02-08T13:02:41;103317.59;;;7.64;100.00
27294;BME280;14785;52.556;13.430;2023-02-08T13:05:18;103318.03;;;8.27;100.00
27294;BME280;14785;52.556;13.430;2023-02-08T13:07:47;103312.91;;;8.41;100.00
27294;BME280;14785;52.556;13.430;2023-02-08T13:10:19;103311.56;;;7.42;100.00
27294;BME280;14785;52.556;13.430;2023-02-08T13:12:53;103310.00;;;7.57;100.00
27294;BME280;14785;52.556;13.430;2023-02-08T13:15:24;103304.81;;;7.72;100.00
27294;BME280;14785;52.556;13.430;2023-02-08T13:23:12;103292.63;;;8.40;100.00
27294;BME280;14785;52.556;13.430;2023-02-08T13:25:40;103301.19;;;7.92;100.00
27294;BME280;14785;52.556;13.430;2023-02-08T13:28:06;103299.97;;;6.49;100.00
27294;BME280;14785;52.556;13.430;2023-02-08T13:30:36;103295.91;;;8.62;100.00
27294;BME280;14785;52.556;13.430;2023-02-08T13:33:28;103283.19;;;8.34;100.00
27294;BME280;14785;52.556;13.430;2023-02-08T13:35:56;103286.66;;;9.01;100.00
27294;BME280;14785;52.556;13.430;2023-02-08T13:38:31;103282.94;;;9.67;100.00
27294;BME280;14785;52.556;13.430;2023-02-08T13:41:06;103277.38;;;7.19;100.00
27294;BME280;14785;52.556;13.430;2023-02-08T13:43:47;103278.38;;;6.98;100.00
27294;BME280;14785;52.556;13.430;2023-02-08T13:46:16;103277.78;;;5.70;100.00
27294;BME280;14785;52.556;13.430;2023-02-08T13:48:51;103262.44;;;5.78;100.00
27294;BME280;14785;52.556;13.430;2023-02-08T13:59:33;103272.66;;;6.09;100.00
27294;BME280;14785;52.556;13.430;2023-02-08T14:04:43;103276.53;;;6.42;100.00
27294;BME280;14785;52.556;13.430;2023-02-08T14:09:44;103267.25;;;6.12;100.00
27294;BME280;14785;52.556;13.430;2023-02-08T14:12:12;103265.84;;;6.63;100.00
27294;BME280;14785;52.556;13.430;2023-02-08T14:14:40;103256.78;;;7.07;100.00
27294;BME280;14785;52.556;13.430;2023-02-08T14:17:19;103255.75;;;7.10;100.00
27294;BME280;14785;52.556;13.430;2023-02-08T14:19:55;103262.38;;;5.36;100.00
27294;BME280;14785;52.556;13.430;2023-02-08T14:22:21;103261.69;;;5.10;100.00
27294;BME280;14785;52.556;13.430;2023-02-08T14:25:07;103264.59;;;6.32;100.00
27294;BME280;14785;52.556;13.430;2023-02-08T14:27:42;103257.81;;;6.46;100.00
27294;BME280;14785;52.556;13.430;2023-02-08T14:32:48;103242.66;;;6.50;100.00
27294;BME280;14785;52.556;13.430;2023-02-08T14:37:43;103241.88;;;6.28;100.00
27294;BME280;14785;52.556;13.430;2023-02-08T14:43:02;103235.19;;;5.99;100.00
27294;BME280;14785;52.556;13.430;2023-02-08T14:45:36;103237.19;;;5.94;100.00
27294;BME280;14785;52.556;13.430;2023-02-08T14:48:18;103241.16;;;6.83;100.00
27294;BME280;14785;52.556;13.430;2023-02-08T14:56:00;103229.59;;;7.22;100.00
27294;BME280;14785;52.556;13.430;2023-02-08T14:58:30;103233.75;;;6.32;100.00
27294;BME280;14785;52.556;13.430;2023-02-08T15:01:00;103235.47;;;6.33;100.00
27294;BME280;14785;52.556;13.430;2023-02-08T15:03:29;103223.56;;;6.23;100.00
27294;BME280;14785;52.556;13.430;2023-02-08T15:08:33;103224.16;;;5.25;100.00